LFMK/CCF METAR and TAF weather

Enter ICAO airport designator
Station Type Date Time Source
LFMK METAR 2019/10/23 08:30 UTC NOAA

LFMK 230830Z AUTO 20003KT 140V260 5000 RA BR FEW011/// BKN064/// OVC086/// ///CB 13/13 Q1009 TEMPO 2000 TSRA BKN005 BKN015CB BECMG 09025G45KT


Station Type Date Time Source
LFMK Decoded METAR 2019/10/23 08:30 UTC NOAA

Carcassonne, France (LFMK) 43-13N 002-19E 130M
Oct 23, 2019 - 04:30 AM EDT / 2019.10.23 0830 UTC
Wind: from the SSW (200 degrees) at 3 MPH (3 KT) (direction variable):0
Visibility: 3 mile(s):0
Sky conditions: overcast
Weather: rain; mist; Cumulonimbus clouds observed
Temperature: 55 F (13 C)
Dew Point: 55 F (13 C)
Relative Humidity: 100%
Pressure (altimeter): 29.80 in. Hg (1009 hPa)
ob: LFMK 230830Z AUTO 20003KT 140V260 5000 RA BR FEW011/// BKN064/// OVC086/// ///CB 13/13 Q1009 TEMPO 2000 TSRA BKN005 BKN015CB BECMG 09025G45KT
cycle: 8

Station Type Date Time Source
LFMK TAF 2019/10/23 09:21 UTC NOAA

TAF LFMK 230800Z 2309/2409 09025G45KT 5000 RA BKN008 OVC014
TEMPO 2309/2312 2000 TSRA BKN005 BKN015CB
BECMG 2312/2314 08015G25KT NSW BKN013 BKN050
BECMG 2322/2324 VRB05KT 7000 BKN020

Example: see airport list